Terminal Aerodrome Forecast
Issued by NWS Shreveport, LA

Home | Current Version | Previous Version | Text Only | Print | Product List | Glossary On
Versions: 1 2 3 4 5 6 7 8 9 10 11 12 13 14 15
000
FTUS44 KSHV 030000 AAA
TAFMLU
TAF AMD
KMLU 030002Z 0300/0324 02007KT 2SM BR OVC004
      TEMPO 0300/0302 4SM BR OVC007
     FM030700 VRB03KT 1/2SM FG OVC002
      TEMPO 0313/0317 5SM BR BKN010
     FM031700 17005KT P6SM BKN020
      TEMPO 0321/0324 SCT025=

USA.gov is the U.S. government's official web portal to all federal, state and local government web resources and services.